sensor_id;sensor_type;location;lat;lon;timestamp;pressure;altitude;pressure_sealevel;temperature;humidity
43804;BME280;29430;52.924;-2.388;2023-04-30T00:04:43;99685.41;;;12.28;100.00
43804;BME280;29430;52.924;-2.388;2023-04-30T00:09:35;99677.91;;;12.24;100.00
43804;BME280;29430;52.924;-2.388;2023-04-30T00:14:26;99673.75;;;12.21;100.00
43804;BME280;29430;52.924;-2.388;2023-04-30T00:19:18;99671.50;;;12.18;100.00
43804;BME280;29430;52.924;-2.388;2023-04-30T00:24:10;99675.50;;;12.15;100.00
43804;BME280;29430;52.924;-2.388;2023-04-30T00:29:01;99671.59;;;12.11;100.00
43804;BME280;29430;52.924;-2.388;2023-04-30T00:33:53;99661.63;;;12.05;100.00
43804;BME280;29430;52.924;-2.388;2023-04-30T00:38:44;99668.72;;;12.06;100.00
43804;BME280;29430;52.924;-2.388;2023-04-30T00:43:36;99661.88;;;12.04;100.00
43804;BME280;29430;52.924;-2.388;2023-04-30T00:48:28;99664.59;;;12.04;100.00
43804;BME280;29430;52.924;-2.388;2023-04-30T00:53:19;99653.09;;;12.02;100.00
43804;BME280;29430;52.924;-2.388;2023-04-30T00:58:11;99651.69;;;11.99;100.00
43804;BME280;29430;52.924;-2.388;2023-04-30T01:03:03;99644.34;;;11.99;100.00
43804;BME280;29430;52.924;-2.388;2023-04-30T01:07:55;99647.28;;;11.98;100.00
43804;BME280;29430;52.924;-2.388;2023-04-30T01:18:33;99645.41;;;11.98;100.00
43804;BME280;29430;52.924;-2.388;2023-04-30T01:23:54;99641.63;;;11.99;100.00
43804;BME280;29430;52.924;-2.388;2023-04-30T01:28:51;99635.81;;;11.96;100.00
43804;BME280;29430;52.924;-2.388;2023-04-30T01:33:43;99632.50;;;11.94;100.00
43804;BME280;29430;52.924;-2.388;2023-04-30T01:49:29;99634.16;;;11.95;100.00
43804;BME280;29430;52.924;-2.388;2023-04-30T01:54:27;99637.94;;;11.94;100.00
43804;BME280;29430;52.924;-2.388;2023-04-30T01:59:21;99627.47;;;11.91;100.00
43804;BME280;29430;52.924;-2.388;2023-04-30T02:04:13;99625.22;;;11.88;100.00
43804;BME280;29430;52.924;-2.388;2023-04-30T02:09:05;99622.97;;;11.85;100.00
43804;BME280;29430;52.924;-2.388;2023-04-30T02:13:57;99620.47;;;11.83;100.00
43804;BME280;29430;52.924;-2.388;2023-04-30T02:18:48;99622.81;;;11.79;100.00
43804;BME280;29430;52.924;-2.388;2023-04-30T02:23:40;99623.97;;;11.72;100.00
43804;BME280;29430;52.924;-2.388;2023-04-30T02:28:32;99625.00;;;11.71;100.00
43804;BME280;29430;52.924;-2.388;2023-04-30T02:33:23;99628.56;;;11.71;100.00
43804;BME280;29430;52.924;-2.388;2023-04-30T02:38:15;99627.13;;;11.69;100.00
43804;BME280;29430;52.924;-2.388;2023-04-30T02:43:07;99626.53;;;11.67;100.00
43804;BME280;29430;52.924;-2.388;2023-04-30T02:47:59;99626.16;;;11.63;100.00
43804;BME280;29430;52.924;-2.388;2023-04-30T02:52:51;99619.88;;;11.62;100.00
43804;BME280;29430;52.924;-2.388;2023-04-30T02:57:42;99626.81;;;11.58;100.00
43804;BME280;29430;52.924;-2.388;2023-04-30T03:02:34;99628.34;;;11.54;100.00
43804;BME280;29430;52.924;-2.388;2023-04-30T03:07:26;99631.75;;;11.50;100.00
43804;BME280;29430;52.924;-2.388;2023-04-30T03:12:17;99628.63;;;11.46;100.00
43804;BME280;29430;52.924;-2.388;2023-04-30T03:17:09;99622.47;;;11.39;100.00
43804;BME280;29430;52.924;-2.388;2023-04-30T03:22:01;99629.63;;;11.33;100.00
43804;BME280;29430;52.924;-2.388;2023-04-30T03:26:52;99629.06;;;11.24;100.00
43804;BME280;29430;52.924;-2.388;2023-04-30T03:31:44;99623.50;;;11.19;100.00
43804;BME280;29430;52.924;-2.388;2023-04-30T03:36:36;99624.75;;;11.17;100.00
43804;BME280;29430;52.924;-2.388;2023-04-30T03:41:27;99616.25;;;11.13;100.00
43804;BME280;29430;52.924;-2.388;2023-04-30T03:46:19;99623.78;;;11.11;100.00
43804;BME280;29430;52.924;-2.388;2023-04-30T03:51:11;99617.97;;;11.07;100.00
43804;BME280;29430;52.924;-2.388;2023-04-30T03:56:03;99620.16;;;10.99;100.00
43804;BME280;29430;52.924;-2.388;2023-04-30T04:00:55;99631.47;;;10.89;100.00
43804;BME280;29430;52.924;-2.388;2023-04-30T04:05:47;99630.72;;;10.82;100.00
43804;BME280;29430;52.924;-2.388;2023-04-30T04:10:38;99630.38;;;10.71;100.00
43804;BME280;29430;52.924;-2.388;2023-04-30T04:15:31;99637.50;;;10.66;100.00
43804;BME280;29430;52.924;-2.388;2023-04-30T04:20:22;99628.84;;;10.57;100.00
43804;BME280;29430;52.924;-2.388;2023-04-30T04:25:14;99621.34;;;10.52;100.00
43804;BME280;29430;52.924;-2.388;2023-04-30T04:30:06;99626.19;;;10.50;100.00
43804;BME280;29430;52.924;-2.388;2023-04-30T04:34:58;99623.06;;;10.47;100.00
43804;BME280;29430;52.924;-2.388;2023-04-30T04:39:50;99624.34;;;10.44;100.00
43804;BME280;29430;52.924;-2.388;2023-04-30T04:44:42;99626.44;;;10.42;100.00
43804;BME280;29430;52.924;-2.388;2023-04-30T04:49:34;99629.56;;;10.39;100.00
43804;BME280;29430;52.924;-2.388;2023-04-30T04:54:26;99627.09;;;10.37;100.00
43804;BME280;29430;52.924;-2.388;2023-04-30T04:59:18;99618.94;;;10.37;100.00
43804;BME280;29430;52.924;-2.388;2023-04-30T05:04:10;99626.03;;;10.38;100.00
43804;BME280;29430;52.924;-2.388;2023-04-30T05:09:04;99621.22;;;10.41;100.00
43804;BME280;29430;52.924;-2.388;2023-04-30T05:13:59;99627.72;;;10.39;100.00
43804;BME280;29430;52.924;-2.388;2023-04-30T05:18:50;99624.13;;;10.46;100.00
43804;BME280;29430;52.924;-2.388;2023-04-30T05:23:43;99616.00;;;10.46;100.00
43804;BME280;29430;52.924;-2.388;2023-04-30T05:28:35;99623.06;;;10.47;100.00
43804;BME280;29430;52.924;-2.388;2023-04-30T05:33:27;99623.06;;;10.47;100.00
43804;BME280;29430;52.924;-2.388;2023-04-30T05:38:18;99598.06;;;10.45;100.00
43804;BME280;29430;52.924;-2.388;2023-04-30T05:43:10;99610.13;;;10.49;100.00
43804;BME280;29430;52.924;-2.388;2023-04-30T05:48:02;99611.78;;;10.50;100.00
43804;BME280;29430;52.924;-2.388;2023-04-30T05:52:54;99599.28;;;10.49;100.00
43804;BME280;29430;52.924;-2.388;2023-04-30T05:57:46;99612.41;;;10.52;100.00
43804;BME280;29430;52.924;-2.388;2023-04-30T06:02:38;99620.75;;;10.50;100.00
43804;BME280;29430;52.924;-2.388;2023-04-30T06:07:30;99605.53;;;10.49;100.00
43804;BME280;29430;52.924;-2.388;2023-04-30T06:12:21;99610.94;;;10.49;100.00
43804;BME280;29430;52.924;-2.388;2023-04-30T06:17:13;99609.06;;;10.50;100.00
43804;BME280;29430;52.924;-2.388;2023-04-30T06:22:06;99621.59;;;10.51;100.00
43804;BME280;29430;52.924;-2.388;2023-04-30T06:26:57;99614.25;;;10.51;100.00
43804;BME280;29430;52.924;-2.388;2023-04-30T06:31:50;99620.91;;;10.55;100.00
43804;BME280;29430;52.924;-2.388;2023-04-30T06:36:42;99627.53;;;10.60;100.00
43804;BME280;29430;52.924;-2.388;2023-04-30T06:41:34;99617.25;;;10.68;100.00
43804;BME280;29430;52.924;-2.388;2023-04-30T06:46:26;99610.50;;;10.78;99.22
43804;BME280;29430;52.924;-2.388;2023-04-30T06:51:17;99607.94;;;10.83;99.86
43804;BME280;29430;52.924;-2.388;2023-04-30T06:56:09;99605.56;;;10.93;98.50
43804;BME280;29430;52.924;-2.388;2023-04-30T07:01:01;99620.59;;;10.96;97.01
43804;BME280;29430;52.924;-2.388;2023-04-30T07:05:53;99615.16;;;10.96;97.76
43804;BME280;29430;52.924;-2.388;2023-04-30T07:10:45;99613.13;;;10.91;99.35
43804;BME280;29430;52.924;-2.388;2023-04-30T07:15:37;99614.59;;;10.87;98.85
43804;BME280;29430;52.924;-2.388;2023-04-30T07:20:29;99614.44;;;10.82;99.99
43804;BME280;29430;52.924;-2.388;2023-04-30T07:25:20;99610.94;;;10.74;100.00
43804;BME280;29430;52.924;-2.388;2023-04-30T07:30:12;99610.56;;;10.71;100.00
43804;BME280;29430;52.924;-2.388;2023-04-30T07:35:04;99604.97;;;10.66;100.00
43804;BME280;29430;52.924;-2.388;2023-04-30T07:39:56;99603.91;;;10.67;99.64
43804;BME280;29430;52.924;-2.388;2023-04-30T07:44:48;99606.63;;;10.67;100.00
43804;BME280;29430;52.924;-2.388;2023-04-30T07:49:40;99612.63;;;10.75;99.79
43804;BME280;29430;52.924;-2.388;2023-04-30T07:54:32;99615.28;;;10.82;100.00
43804;BME280;29430;52.924;-2.388;2023-04-30T07:59:27;99623.13;;;10.90;100.00
43804;BME280;29430;52.924;-2.388;2023-04-30T08:04:18;99610.19;;;10.92;100.00
43804;BME280;29430;52.924;-2.388;2023-04-30T08:09:11;99609.50;;;10.97;100.00
43804;BME280;29430;52.924;-2.388;2023-04-30T08:14:03;99607.63;;;10.98;99.43
43804;BME280;29430;52.924;-2.388;2023-04-30T08:18:55;99612.03;;;10.92;99.93
43804;BME280;29430;52.924;-2.388;2023-04-30T08:23:47;99616.44;;;10.93;100.00
43804;BME280;29430;52.924;-2.388;2023-04-30T08:28:40;99612.50;;;10.89;100.00
43804;BME280;29430;52.924;-2.388;2023-04-30T08:33:31;99617.47;;;10.92;100.00
43804;BME280;29430;52.924;-2.388;2023-04-30T08:38:23;99623.53;;;10.94;100.00
43804;BME280;29430;52.924;-2.388;2023-04-30T08:43:18;99620.38;;;10.97;100.00
43804;BME280;29430;52.924;-2.388;2023-04-30T08:48:11;99634.44;;;11.13;100.00
43804;BME280;29430;52.924;-2.388;2023-04-30T08:53:07;99624.50;;;11.25;100.00
43804;BME280;29430;52.924;-2.388;2023-04-30T08:58:01;99640.47;;;11.33;99.05
43804;BME280;29430;52.924;-2.388;2023-04-30T09:02:53;99636.94;;;11.33;96.93
43804;BME280;29430;52.924;-2.388;2023-04-30T09:07:45;99633.69;;;11.24;97.45
43804;BME280;29430;52.924;-2.388;2023-04-30T09:13:05;99632.91;;;11.17;98.03
43804;BME280;29430;52.924;-2.388;2023-04-30T09:18:13;99632.66;;;11.00;98.18
43804;BME280;29430;52.924;-2.388;2023-04-30T09:23:09;99631.66;;;10.94;99.39
43804;BME280;29430;52.924;-2.388;2023-04-30T09:28:11;99630.59;;;10.95;99.55
43804;BME280;29430;52.924;-2.388;2023-04-30T09:33:03;99631.47;;;10.89;99.33
43804;BME280;29430;52.924;-2.388;2023-04-30T09:37:55;99631.09;;;10.85;99.86
43804;BME280;29430;52.924;-2.388;2023-04-30T09:42:59;99623.41;;;10.82;98.36
43804;BME280;29430;52.924;-2.388;2023-04-30T09:47:51;99625.97;;;10.77;98.33
43804;BME280;29430;52.924;-2.388;2023-04-30T09:52:52;99623.13;;;10.65;99.08
43804;BME280;29430;52.924;-2.388;2023-04-30T09:57:44;99627.97;;;10.63;100.00
43804;BME280;29430;52.924;-2.388;2023-04-30T10:02:36;99632.72;;;10.68;100.00
43804;BME280;29430;52.924;-2.388;2023-04-30T10:07:33;99623.72;;;10.67;100.00
43804;BME280;29430;52.924;-2.388;2023-04-30T10:12:38;99620.97;;;10.74;100.00
43804;BME280;29430;52.924;-2.388;2023-04-30T10:17:33;99629.00;;;10.87;100.00
43804;BME280;29430;52.924;-2.388;2023-04-30T10:22:33;99617.28;;;11.12;100.00
43804;BME280;29430;52.924;-2.388;2023-04-30T10:27:25;99626.31;;;11.31;100.00
43804;BME280;29430;52.924;-2.388;2023-04-30T10:32:17;99621.56;;;11.45;100.00
43804;BME280;29430;52.924;-2.388;2023-04-30T10:37:18;99619.66;;;11.64;99.86
43804;BME280;29430;52.924;-2.388;2023-04-30T10:42:12;99626.81;;;11.95;100.00
43804;BME280;29430;52.924;-2.388;2023-04-30T10:47:06;99624.22;;;12.19;97.63
43804;BME280;29430;52.924;-2.388;2023-04-30T10:51:59;99627.59;;;12.33;97.29
43804;BME280;29430;52.924;-2.388;2023-04-30T10:56:52;99622.91;;;12.52;96.08
43804;BME280;29430;52.924;-2.388;2023-04-30T11:01:59;99619.28;;;12.70;96.10
43804;BME280;29430;52.924;-2.388;2023-04-30T11:07:08;99618.69;;;12.80;94.05
43804;BME280;29430;52.924;-2.388;2023-04-30T11:12:08;99608.66;;;12.92;94.98
43804;BME280;29430;52.924;-2.388;2023-04-30T11:17:01;99604.28;;;13.03;93.33
43804;BME280;29430;52.924;-2.388;2023-04-30T11:27:03;99591.81;;;13.31;92.80
43804;BME280;29430;52.924;-2.388;2023-04-30T11:32:00;99587.34;;;13.36;93.08
43804;BME280;29430;52.924;-2.388;2023-04-30T11:36:57;99580.72;;;13.44;94.28
43804;BME280;29430;52.924;-2.388;2023-04-30T11:41:49;99576.88;;;13.45;95.13
43804;BME280;29430;52.924;-2.388;2023-04-30T11:46:41;99572.06;;;13.47;95.64
43804;BME280;29430;52.924;-2.388;2023-04-30T11:51:35;99573.34;;;13.45;95.91
43804;BME280;29430;52.924;-2.388;2023-04-30T11:56:26;99572.41;;;13.39;95.67
43804;BME280;29430;52.924;-2.388;2023-04-30T12:01:19;99573.00;;;13.29;96.01
43804;BME280;29430;52.924;-2.388;2023-04-30T12:06:20;99566.84;;;13.22;97.43
43804;BME280;29430;52.924;-2.388;2023-04-30T12:11:24;99577.38;;;13.18;97.33
43804;BME280;29430;52.924;-2.388;2023-04-30T12:16:16;99575.59;;;13.00;98.16
43804;BME280;29430;52.924;-2.388;2023-04-30T12:21:08;99582.72;;;12.78;97.01
43804;BME280;29430;52.924;-2.388;2023-04-30T12:26:00;99565.66;;;12.59;99.54
43804;BME280;29430;52.924;-2.388;2023-04-30T12:30:52;99567.44;;;12.53;100.00
43804;BME280;29430;52.924;-2.388;2023-04-30T12:35:44;99564.59;;;12.60;100.00
43804;BME280;29430;52.924;-2.388;2023-04-30T12:40:36;99564.38;;;12.73;100.00
43804;BME280;29430;52.924;-2.388;2023-04-30T12:45:42;99559.41;;;12.82;100.00
43804;BME280;29430;52.924;-2.388;2023-04-30T12:50:34;99559.06;;;12.90;99.77
43804;BME280;29430;52.924;-2.388;2023-04-30T12:55:26;99564.84;;;12.94;98.30
43804;BME280;29430;52.924;-2.388;2023-04-30T13:00:20;99556.81;;;12.87;99.56
43804;BME280;29430;52.924;-2.388;2023-04-30T13:05:13;99560.34;;;12.87;99.07
43804;BME280;29430;52.924;-2.388;2023-04-30T13:10:06;99556.44;;;12.83;98.75
43804;BME280;29430;52.924;-2.388;2023-04-30T13:14:58;99555.25;;;12.91;99.97
43804;BME280;29430;52.924;-2.388;2023-04-30T13:19:50;99553.34;;;13.03;100.00
43804;BME280;29430;52.924;-2.388;2023-04-30T13:24:41;99552.16;;;13.11;99.27
43804;BME280;29430;52.924;-2.388;2023-04-30T13:29:33;99541.16;;;13.06;99.00
43804;BME280;29430;52.924;-2.388;2023-04-30T13:34:25;99544.47;;;13.08;98.21
43804;BME280;29430;52.924;-2.388;2023-04-30T13:39:16;99539.75;;;13.15;98.90
43804;BME280;29430;52.924;-2.388;2023-04-30T13:44:08;99545.03;;;13.22;98.22
43804;BME280;29430;52.924;-2.388;2023-04-30T13:49:00;99541.13;;;13.30;98.98
43804;BME280;29430;52.924;-2.388;2023-04-30T13:53:51;99530.38;;;13.35;98.55
43804;BME280;29430;52.924;-2.388;2023-04-30T13:58:44;99536.63;;;13.23;97.17
43804;BME280;29430;52.924;-2.388;2023-04-30T14:03:36;99531.81;;;13.14;98.08
43804;BME280;29430;52.924;-2.388;2023-04-30T14:08:28;99538.22;;;13.07;97.82
43804;BME280;29430;52.924;-2.388;2023-04-30T14:13:22;99515.00;;;13.05;98.98
43804;BME280;29430;52.924;-2.388;2023-04-30T14:18:13;99524.84;;;13.06;99.39
43804;BME280;29430;52.924;-2.388;2023-04-30T14:23:05;99520.44;;;13.17;100.00
43804;BME280;29430;52.924;-2.388;2023-04-30T14:27:57;99515.94;;;13.22;100.00
43804;BME280;29430;52.924;-2.388;2023-04-30T14:32:49;99503.84;;;13.30;100.00
43804;BME280;29430;52.924;-2.388;2023-04-30T14:37:40;99501.22;;;13.47;100.00
43804;BME280;29430;52.924;-2.388;2023-04-30T14:42:32;99500.53;;;13.69;99.04
43804;BME280;29430;52.924;-2.388;2023-04-30T14:47:24;99489.00;;;13.78;96.79
43804;BME280;29430;52.924;-2.388;2023-04-30T14:52:18;99493.13;;;13.81;96.72
43804;BME280;29430;52.924;-2.388;2023-04-30T14:57:10;99493.41;;;13.96;96.06
43804;BME280;29430;52.924;-2.388;2023-04-30T15:02:02;99491.28;;;14.15;95.24
43804;BME280;29430;52.924;-2.388;2023-04-30T15:06:53;99488.38;;;14.22;94.29
43804;BME280;29430;52.924;-2.388;2023-04-30T15:11:45;99487.56;;;14.22;93.95
43804;BME280;29430;52.924;-2.388;2023-04-30T15:16:37;99473.09;;;14.21;93.59
43804;BME280;29430;52.924;-2.388;2023-04-30T15:21:28;99463.00;;;14.22;94.48
43804;BME280;29430;52.924;-2.388;2023-04-30T15:26:20;99462.00;;;14.28;93.94
43804;BME280;29430;52.924;-2.388;2023-04-30T15:31:12;99445.47;;;14.35;93.74
43804;BME280;29430;52.924;-2.388;2023-04-30T15:36:04;99433.47;;;14.36;93.19
43804;BME280;29430;52.924;-2.388;2023-04-30T15:40:56;99434.03;;;14.38;94.03
43804;BME280;29430;52.924;-2.388;2023-04-30T15:45:47;99434.47;;;14.46;94.33
43804;BME280;29430;52.924;-2.388;2023-04-30T15:50:39;99431.38;;;14.60;93.02
43804;BME280;29430;52.924;-2.388;2023-04-30T15:55:31;99437.44;;;14.62;92.05
43804;BME280;29430;52.924;-2.388;2023-04-30T16:00:23;99433.53;;;14.58;91.33
43804;BME280;29430;52.924;-2.388;2023-04-30T16:05:15;99428.66;;;14.60;92.40
43804;BME280;29430;52.924;-2.388;2023-04-30T16:10:08;99419.56;;;14.54;92.70
43804;BME280;29430;52.924;-2.388;2023-04-30T16:15:00;99425.03;;;14.54;92.70
43804;BME280;29430;52.924;-2.388;2023-04-30T16:19:52;99430.66;;;14.47;91.42
43804;BME280;29430;52.924;-2.388;2023-04-30T16:24:44;99420.50;;;14.43;92.54
43804;BME280;29430;52.924;-2.388;2023-04-30T16:29:36;99409.75;;;14.36;92.64
43804;BME280;29430;52.924;-2.388;2023-04-30T16:34:27;99421.41;;;14.31;92.99
43804;BME280;29430;52.924;-2.388;2023-04-30T16:39:19;99420.53;;;14.26;94.49
43804;BME280;29430;52.924;-2.388;2023-04-30T16:44:10;99411.66;;;14.19;96.41
43804;BME280;29430;52.924;-2.388;2023-04-30T16:49:02;99406.22;;;14.19;96.81
43804;BME280;29430;52.924;-2.388;2023-04-30T16:53:54;99404.41;;;14.24;98.20
43804;BME280;29430;52.924;-2.388;2023-04-30T16:58:46;99392.16;;;14.27;98.48
43804;BME280;29430;52.924;-2.388;2023-04-30T17:03:37;99405.44;;;14.40;100.00
43804;BME280;29430;52.924;-2.388;2023-04-30T17:08:29;99396.66;;;14.55;99.75
43804;BME280;29430;52.924;-2.388;2023-04-30T17:13:21;99391.50;;;14.76;99.85
43804;BME280;29430;52.924;-2.388;2023-04-30T17:18:13;99399.56;;;14.88;97.39
43804;BME280;29430;52.924;-2.388;2023-04-30T17:23:05;99392.31;;;14.76;95.85
43804;BME280;29430;52.924;-2.388;2023-04-30T17:27:58;99387.72;;;14.60;96.65
43804;BME280;29430;52.924;-2.388;2023-04-30T17:32:52;99390.50;;;14.43;96.48
43804;BME280;29430;52.924;-2.388;2023-04-30T17:37:45;99371.97;;;14.28;96.45
43804;BME280;29430;52.924;-2.388;2023-04-30T17:42:36;99379.69;;;14.14;97.27
43804;BME280;29430;52.924;-2.388;2023-04-30T17:47:29;99376.72;;;13.99;97.32
43804;BME280;29430;52.924;-2.388;2023-04-30T17:52:22;99373.25;;;13.86;97.41
43804;BME280;29430;52.924;-2.388;2023-04-30T17:57:14;99369.53;;;13.75;98.37
43804;BME280;29430;52.924;-2.388;2023-04-30T18:02:06;99376.22;;;13.68;99.09
43804;BME280;29430;52.924;-2.388;2023-04-30T18:06:58;99371.50;;;13.63;99.89
43804;BME280;29430;52.924;-2.388;2023-04-30T18:11:49;99367.88;;;13.57;100.00
43804;BME280;29430;52.924;-2.388;2023-04-30T18:16:42;99370.84;;;13.56;100.00
43804;BME280;29430;52.924;-2.388;2023-04-30T18:21:34;99369.78;;;13.57;100.00
43804;BME280;29430;52.924;-2.388;2023-04-30T18:26:25;99359.59;;;13.52;100.00
43804;BME280;29430;52.924;-2.388;2023-04-30T18:31:17;99363.16;;;13.53;100.00
43804;BME280;29430;52.924;-2.388;2023-04-30T18:36:09;99367.09;;;13.45;100.00
43804;BME280;29430;52.924;-2.388;2023-04-30T18:41:01;99370.00;;;13.38;100.00
43804;BME280;29430;52.924;-2.388;2023-04-30T18:45:52;99363.13;;;13.36;100.00
43804;BME280;29430;52.924;-2.388;2023-04-30T18:50:45;99358.13;;;13.33;100.00
43804;BME280;29430;52.924;-2.388;2023-04-30T18:55:37;99358.53;;;13.24;100.00
43804;BME280;29430;52.924;-2.388;2023-04-30T19:00:28;99358.09;;;13.16;100.00
43804;BME280;29430;52.924;-2.388;2023-04-30T19:05:20;99351.88;;;13.03;100.00
43804;BME280;29430;52.924;-2.388;2023-04-30T19:10:12;99364.94;;;12.89;100.00
43804;BME280;29430;52.924;-2.388;2023-04-30T19:15:04;99359.56;;;12.78;100.00
43804;BME280;29430;52.924;-2.388;2023-04-30T19:19:58;99358.16;;;12.63;100.00
43804;BME280;29430;52.924;-2.388;2023-04-30T19:24:50;99370.47;;;12.54;100.00
43804;BME280;29430;52.924;-2.388;2023-04-30T19:29:44;99351.34;;;12.49;100.00
43804;BME280;29430;52.924;-2.388;2023-04-30T19:34:36;99365.88;;;12.43;100.00
43804;BME280;29430;52.924;-2.388;2023-04-30T19:39:30;99373.81;;;12.32;100.00
43804;BME280;29430;52.924;-2.388;2023-04-30T19:44:24;99365.78;;;12.26;100.00
43804;BME280;29430;52.924;-2.388;2023-04-30T19:49:16;99366.97;;;12.18;100.00
43804;BME280;29430;52.924;-2.388;2023-04-30T19:54:08;99375.25;;;12.11;100.00
43804;BME280;29430;52.924;-2.388;2023-04-30T19:59:04;99380.78;;;12.05;100.00
43804;BME280;29430;52.924;-2.388;2023-04-30T20:03:56;99383.88;;;11.96;100.00
43804;BME280;29430;52.924;-2.388;2023-04-30T20:08:48;99382.44;;;11.94;100.00
43804;BME280;29430;52.924;-2.388;2023-04-30T20:13:39;99378.53;;;11.90;100.00
43804;BME280;29430;52.924;-2.388;2023-04-30T20:18:31;99390.91;;;11.86;100.00
43804;BME280;29430;52.924;-2.388;2023-04-30T20:23:23;99382.66;;;11.80;100.00
43804;BME280;29430;52.924;-2.388;2023-04-30T20:28:16;99389.94;;;11.80;100.00
43804;BME280;29430;52.924;-2.388;2023-04-30T20:33:09;99389.84;;;11.75;100.00
43804;BME280;29430;52.924;-2.388;2023-04-30T20:38:01;99390.31;;;11.72;100.00
43804;BME280;29430;52.924;-2.388;2023-04-30T20:42:53;99372.56;;;11.69;100.00
43804;BME280;29430;52.924;-2.388;2023-04-30T20:47:45;99378.47;;;11.66;100.00
43804;BME280;29430;52.924;-2.388;2023-04-30T20:52:36;99379.41;;;11.60;100.00
43804;BME280;29430;52.924;-2.388;2023-04-30T20:57:29;99367.59;;;11.54;100.00
43804;BME280;29430;52.924;-2.388;2023-04-30T21:02:20;99369.94;;;11.51;100.00
43804;BME280;29430;52.924;-2.388;2023-04-30T21:07:12;99363.91;;;11.49;100.00
43804;BME280;29430;52.924;-2.388;2023-04-30T21:12:04;99367.09;;;11.45;100.00
43804;BME280;29430;52.924;-2.388;2023-04-30T21:16:56;99370.28;;;11.42;100.00
43804;BME280;29430;52.924;-2.388;2023-04-30T21:21:47;99363.41;;;11.40;100.00
43804;BME280;29430;52.924;-2.388;2023-04-30T21:26:39;99363.06;;;11.36;100.00
43804;BME280;29430;52.924;-2.388;2023-04-30T21:31:31;99367.91;;;11.34;100.00
43804;BME280;29430;52.924;-2.388;2023-04-30T21:36:22;99354.91;;;11.36;100.00
43804;BME280;29430;52.924;-2.388;2023-04-30T21:41:15;99350.41;;;11.30;100.00
43804;BME280;29430;52.924;-2.388;2023-04-30T21:46:07;99351.09;;;11.25;100.00
43804;BME280;29430;52.924;-2.388;2023-04-30T21:51:00;99370.34;;;11.24;100.00
43804;BME280;29430;52.924;-2.388;2023-04-30T21:55:52;99370.19;;;11.19;100.00
43804;BME280;29430;52.924;-2.388;2023-04-30T22:00:43;99361.91;;;11.14;100.00
43804;BME280;29430;52.924;-2.388;2023-04-30T22:05:36;99368.25;;;11.07;100.00
43804;BME280;29430;52.924;-2.388;2023-04-30T22:10:27;99353.56;;;10.97;100.00
43804;BME280;29430;52.924;-2.388;2023-04-30T22:15:19;99360.38;;;10.87;100.00
43804;BME280;29430;52.924;-2.388;2023-04-30T22:20:11;99363.78;;;10.83;100.00
43804;BME280;29430;52.924;-2.388;2023-04-30T22:25:03;99375.31;;;10.78;100.00
43804;BME280;29430;52.924;-2.388;2023-04-30T22:29:54;99365.00;;;10.68;100.00
43804;BME280;29430;52.924;-2.388;2023-04-30T22:34:49;99363.66;;;10.59;100.00
43804;BME280;29430;52.924;-2.388;2023-04-30T22:39:41;99367.13;;;10.48;100.00
43804;BME280;29430;52.924;-2.388;2023-04-30T22:44:33;99368.84;;;10.42;100.00
43804;BME280;29430;52.924;-2.388;2023-04-30T22:49:25;99359.97;;;10.35;100.00
43804;BME280;29430;52.924;-2.388;2023-04-30T22:54:22;99365.88;;;10.25;100.00
43804;BME280;29430;52.924;-2.388;2023-04-30T22:59:14;99359.47;;;10.19;100.00
43804;BME280;29430;52.924;-2.388;2023-04-30T23:04:06;99360.97;;;10.15;100.00
43804;BME280;29430;52.924;-2.388;2023-04-30T23:09:00;99369.09;;;10.15;100.00
43804;BME280;29430;52.924;-2.388;2023-04-30T23:13:52;99365.56;;;10.15;100.00
43804;BME280;29430;52.924;-2.388;2023-04-30T23:18:43;99353.50;;;10.11;100.00
43804;BME280;29430;52.924;-2.388;2023-04-30T23:23:37;99356.53;;;10.02;100.00
43804;BME280;29430;52.924;-2.388;2023-04-30T23:28:28;99357.56;;;10.01;100.00
43804;BME280;29430;52.924;-2.388;2023-04-30T23:33:21;99359.06;;;9.97;100.00
43804;BME280;29430;52.924;-2.388;2023-04-30T23:38:13;99345.34;;;9.92;100.00
43804;BME280;29430;52.924;-2.388;2023-04-30T23:43:06;99347.69;;;9.89;100.00
43804;BME280;29430;52.924;-2.388;2023-04-30T23:47:58;99346.63;;;9.90;100.00
43804;BME280;29430;52.924;-2.388;2023-04-30T23:52:49;99342.03;;;9.90;100.00
43804;BME280;29430;52.924;-2.388;2023-04-30T23:57:42;99338.91;;;9.93;100.00
